sensor_id;sensor_type;location;lat;lon;timestamp;temperature;humidity
20610;DHT22;10463;52.378;9.688;2022-09-16T00:01:59;27.40;32.80
20610;DHT22;10463;52.378;9.688;2022-09-16T00:04:44;27.40;32.80
20610;DHT22;10463;52.378;9.688;2022-09-16T00:07:28;27.40;32.80
20610;DHT22;10463;52.378;9.688;2022-09-16T00:10:13;27.40;32.80
20610;DHT22;10463;52.378;9.688;2022-09-16T00:12:58;27.40;32.80
20610;DHT22;10463;52.378;9.688;2022-09-16T00:15:43;27.40;32.70
20610;DHT22;10463;52.378;9.688;2022-09-16T00:18:29;27.40;32.80
20610;DHT22;10463;52.378;9.688;2022-09-16T00:21:14;27.40;32.70
20610;DHT22;10463;52.378;9.688;2022-09-16T00:23:59;27.40;32.70
20610;DHT22;10463;52.378;9.688;2022-09-16T00:26:45;27.40;32.70
20610;DHT22;10463;52.378;9.688;2022-09-16T00:29:29;27.40;32.70
20610;DHT22;10463;52.378;9.688;2022-09-16T00:32:14;27.40;32.70
20610;DHT22;10463;52.378;9.688;2022-09-16T00:35:00;27.40;32.70
20610;DHT22;10463;52.378;9.688;2022-09-16T00:37:45;27.40;32.70
20610;DHT22;10463;52.378;9.688;2022-09-16T00:40:29;27.40;32.70
20610;DHT22;10463;52.378;9.688;2022-09-16T00:43:15;27.40;32.70
20610;DHT22;10463;52.378;9.688;2022-09-16T00:46:03;27.40;32.70
20610;DHT22;10463;52.378;9.688;2022-09-16T00:48:48;27.40;32.70
20610;DHT22;10463;52.378;9.688;2022-09-16T00:51:36;27.40;32.70
20610;DHT22;10463;52.378;9.688;2022-09-16T00:54:21;27.40;32.70
20610;DHT22;10463;52.378;9.688;2022-09-16T00:57:08;27.40;32.70
20610;DHT22;10463;52.378;9.688;2022-09-16T00:59:54;27.40;33.40
20610;DHT22;10463;52.378;9.688;2022-09-16T01:02:40;27.40;32.70
20610;DHT22;10463;52.378;9.688;2022-09-16T01:05:26;27.40;32.70
20610;DHT22;10463;52.378;9.688;2022-09-16T01:08:12;27.40;32.70
20610;DHT22;10463;52.378;9.688;2022-09-16T01:10:57;27.40;32.70
20610;DHT22;10463;52.378;9.688;2022-09-16T01:13:43;27.40;32.70
20610;DHT22;10463;52.378;9.688;2022-09-16T01:16:33;27.40;32.70
20610;DHT22;10463;52.378;9.688;2022-09-16T01:19:41;27.40;32.70
20610;DHT22;10463;52.378;9.688;2022-09-16T01:22:45;27.40;32.70
20610;DHT22;10463;52.378;9.688;2022-09-16T01:25:51;27.40;32.70
20610;DHT22;10463;52.378;9.688;2022-09-16T01:31:58;27.40;32.70
20610;DHT22;10463;52.378;9.688;2022-09-16T01:34:54;27.40;32.60
20610;DHT22;10463;52.378;9.688;2022-09-16T01:37:49;27.30;32.20
20610;DHT22;10463;52.378;9.688;2022-09-16T01:40:46;27.30;31.80
20610;DHT22;10463;52.378;9.688;2022-09-16T01:43:44;27.20;31.60
20610;DHT22;10463;52.378;9.688;2022-09-16T01:46:40;27.20;31.60
20610;DHT22;10463;52.378;9.688;2022-09-16T01:49:40;27.20;31.50
20610;DHT22;10463;52.378;9.688;2022-09-16T01:52:37;27.10;32.10
20610;DHT22;10463;52.378;9.688;2022-09-16T01:55:29;27.10;31.50
20610;DHT22;10463;52.378;9.688;2022-09-16T01:58:21;27.00;31.40
20610;DHT22;10463;52.378;9.688;2022-09-16T02:01:11;27.00;32.00
20610;DHT22;10463;52.378;9.688;2022-09-16T02:04:04;27.00;31.40
20610;DHT22;10463;52.378;9.688;2022-09-16T02:06:53;27.00;31.40
20610;DHT22;10463;52.378;9.688;2022-09-16T02:09:42;26.90;31.30
20610;DHT22;10463;52.378;9.688;2022-09-16T02:12:33;26.90;31.30
20610;DHT22;10463;52.378;9.688;2022-09-16T02:15:22;26.80;31.20
20610;DHT22;10463;52.378;9.688;2022-09-16T02:18:12;26.80;31.20
20610;DHT22;10463;52.378;9.688;2022-09-16T02:21:00;26.80;31.30
20610;DHT22;10463;52.378;9.688;2022-09-16T02:23:51;26.80;31.20
20610;DHT22;10463;52.378;9.688;2022-09-16T02:26:43;26.70;31.20
20610;DHT22;10463;52.378;9.688;2022-09-16T02:29:33;26.70;31.20
20610;DHT22;10463;52.378;9.688;2022-09-16T02:32:22;26.60;31.10
20610;DHT22;10463;52.378;9.688;2022-09-16T02:35:12;26.60;31.80
20610;DHT22;10463;52.378;9.688;2022-09-16T02:38:00;26.60;31.10
20610;DHT22;10463;52.378;9.688;2022-09-16T02:40:50;26.60;31.10
20610;DHT22;10463;52.378;9.688;2022-09-16T02:43:36;26.50;31.00
20610;DHT22;10463;52.378;9.688;2022-09-16T02:46:25;26.50;31.10
20610;DHT22;10463;52.378;9.688;2022-09-16T02:49:21;26.50;31.10
20610;DHT22;10463;52.378;9.688;2022-09-16T02:52:16;26.50;31.00
20610;DHT22;10463;52.378;9.688;2022-09-16T02:55:07;26.40;31.00
20610;DHT22;10463;52.378;9.688;2022-09-16T02:57:57;26.40;31.00
20610;DHT22;10463;52.378;9.688;2022-09-16T03:00:46;26.30;30.90
20610;DHT22;10463;52.378;9.688;2022-09-16T03:03:31;26.30;30.90
20610;DHT22;10463;52.378;9.688;2022-09-16T03:06:20;26.30;30.90
20610;DHT22;10463;52.378;9.688;2022-09-16T03:09:06;26.30;30.90
20610;DHT22;10463;52.378;9.688;2022-09-16T03:12:39;26.30;31.10
20610;DHT22;10463;52.378;9.688;2022-09-16T03:15:44;26.30;30.90
20610;DHT22;10463;52.378;9.688;2022-09-16T03:18:55;26.20;30.90
20610;DHT22;10463;52.378;9.688;2022-09-16T03:21:50;26.20;31.50
20610;DHT22;10463;52.378;9.688;2022-09-16T03:24:46;26.20;30.90
20610;DHT22;10463;52.378;9.688;2022-09-16T03:27:37;26.20;30.80
20610;DHT22;10463;52.378;9.688;2022-09-16T03:30:24;26.20;30.90
20610;DHT22;10463;52.378;9.688;2022-09-16T03:33:20;26.20;31.00
20610;DHT22;10463;52.378;9.688;2022-09-16T03:36:08;26.10;31.10
20610;DHT22;10463;52.378;9.688;2022-09-16T03:38:57;26.10;31.20
20610;DHT22;10463;52.378;9.688;2022-09-16T03:41:43;26.10;31.20
20610;DHT22;10463;52.378;9.688;2022-09-16T03:44:32;26.10;31.30
20610;DHT22;10463;52.378;9.688;2022-09-16T03:47:17;26.10;31.20
20610;DHT22;10463;52.378;9.688;2022-09-16T03:50:05;26.10;31.30
20610;DHT22;10463;52.378;9.688;2022-09-16T03:52:49;26.10;31.20
20610;DHT22;10463;52.378;9.688;2022-09-16T03:55:34;26.00;31.00
20610;DHT22;10463;52.378;9.688;2022-09-16T03:58:19;26.00;31.00
20610;DHT22;10463;52.378;9.688;2022-09-16T04:01:04;26.00;30.90
20610;DHT22;10463;52.378;9.688;2022-09-16T04:03:48;26.00;30.80
20610;DHT22;10463;52.378;9.688;2022-09-16T04:06:35;25.90;30.80
20610;DHT22;10463;52.378;9.688;2022-09-16T04:09:19;25.90;30.80
20610;DHT22;10463;52.378;9.688;2022-09-16T04:12:04;25.90;30.80
20610;DHT22;10463;52.378;9.688;2022-09-16T04:14:51;25.80;30.70
20610;DHT22;10463;52.378;9.688;2022-09-16T04:17:35;25.80;30.80
20610;DHT22;10463;52.378;9.688;2022-09-16T04:20:20;25.80;30.80
20610;DHT22;10463;52.378;9.688;2022-09-16T04:23:07;25.80;30.80
20610;DHT22;10463;52.378;9.688;2022-09-16T04:25:56;25.80;30.90
20610;DHT22;10463;52.378;9.688;2022-09-16T04:28:41;25.70;30.80
20610;DHT22;10463;52.378;9.688;2022-09-16T04:31:25;25.70;30.80
20610;DHT22;10463;52.378;9.688;2022-09-16T04:34:10;25.70;30.70
20610;DHT22;10463;52.378;9.688;2022-09-16T04:36:55;25.60;30.80
20610;DHT22;10463;52.378;9.688;2022-09-16T04:39:41;25.60;30.80
20610;DHT22;10463;52.378;9.688;2022-09-16T04:42:26;25.60;30.80
20610;DHT22;10463;52.378;9.688;2022-09-16T04:45:11;25.60;30.80
20610;DHT22;10463;52.378;9.688;2022-09-16T04:47:56;25.50;30.80
20610;DHT22;10463;52.378;9.688;2022-09-16T04:50:41;25.50;30.80
20610;DHT22;10463;52.378;9.688;2022-09-16T04:53:26;25.50;31.60
20610;DHT22;10463;52.378;9.688;2022-09-16T04:56:15;25.50;30.90
20610;DHT22;10463;52.378;9.688;2022-09-16T04:59:02;25.50;30.90
20610;DHT22;10463;52.378;9.688;2022-09-16T05:01:47;25.50;31.00
20610;DHT22;10463;52.378;9.688;2022-09-16T05:04:32;25.40;31.00
20610;DHT22;10463;52.378;9.688;2022-09-16T05:07:16;25.50;31.00
20610;DHT22;10463;52.378;9.688;2022-09-16T05:10:01;25.50;31.10
20610;DHT22;10463;52.378;9.688;2022-09-16T05:12:51;25.40;31.70
20610;DHT22;10463;52.378;9.688;2022-09-16T05:15:36;25.40;31.10
20610;DHT22;10463;52.378;9.688;2022-09-16T05:18:21;25.40;31.10
20610;DHT22;10463;52.378;9.688;2022-09-16T05:21:09;25.40;31.20
20610;DHT22;10463;52.378;9.688;2022-09-16T05:23:58;25.40;31.30
20610;DHT22;10463;52.378;9.688;2022-09-16T05:26:43;25.40;31.30
20610;DHT22;10463;52.378;9.688;2022-09-16T05:29:28;25.40;31.30
20610;DHT22;10463;52.378;9.688;2022-09-16T05:32:13;25.40;31.30
20610;DHT22;10463;52.378;9.688;2022-09-16T05:34:58;25.40;31.30
20610;DHT22;10463;52.378;9.688;2022-09-16T05:37:42;25.40;31.20
20610;DHT22;10463;52.378;9.688;2022-09-16T05:40:27;25.40;31.20
20610;DHT22;10463;52.378;9.688;2022-09-16T05:43:12;25.40;31.20
20610;DHT22;10463;52.378;9.688;2022-09-16T05:45:58;25.40;31.80
20610;DHT22;10463;52.378;9.688;2022-09-16T05:48:43;25.40;31.20
20610;DHT22;10463;52.378;9.688;2022-09-16T05:51:28;25.40;31.20
20610;DHT22;10463;52.378;9.688;2022-09-16T05:54:13;25.40;31.10
20610;DHT22;10463;52.378;9.688;2022-09-16T05:56:58;25.30;31.00
20610;DHT22;10463;52.378;9.688;2022-09-16T05:59:42;25.30;31.00
20610;DHT22;10463;52.378;9.688;2022-09-16T06:02:28;25.30;31.00
20610;DHT22;10463;52.378;9.688;2022-09-16T06:05:14;25.20;30.90
20610;DHT22;10463;52.378;9.688;2022-09-16T06:08:00;25.20;31.60
20610;DHT22;10463;52.378;9.688;2022-09-16T06:10:44;25.20;31.00
20610;DHT22;10463;52.378;9.688;2022-09-16T06:13:29;25.20;31.00
20610;DHT22;10463;52.378;9.688;2022-09-16T06:16:14;25.10;31.00
20610;DHT22;10463;52.378;9.688;2022-09-16T06:19:02;25.10;31.00
20610;DHT22;10463;52.378;9.688;2022-09-16T06:21:47;25.10;31.10
20610;DHT22;10463;52.378;9.688;2022-09-16T06:24:32;25.00;31.10
20610;DHT22;10463;52.378;9.688;2022-09-16T06:27:17;25.00;31.10
20610;DHT22;10463;52.378;9.688;2022-09-16T06:30:03;25.00;31.80
20610;DHT22;10463;52.378;9.688;2022-09-16T06:32:48;25.00;31.20
20610;DHT22;10463;52.378;9.688;2022-09-16T06:35:35;25.00;31.30
20610;DHT22;10463;52.378;9.688;2022-09-16T06:38:20;25.00;31.30
20610;DHT22;10463;52.378;9.688;2022-09-16T06:41:06;25.00;31.30
20610;DHT22;10463;52.378;9.688;2022-09-16T06:43:52;25.00;31.10
20610;DHT22;10463;52.378;9.688;2022-09-16T06:46:37;24.90;31.00
20610;DHT22;10463;52.378;9.688;2022-09-16T06:49:22;24.90;31.10
20610;DHT22;10463;52.378;9.688;2022-09-16T06:52:08;24.90;31.10
20610;DHT22;10463;52.378;9.688;2022-09-16T06:54:55;24.90;31.20
20610;DHT22;10463;52.378;9.688;2022-09-16T06:57:40;24.90;31.20
20610;DHT22;10463;52.378;9.688;2022-09-16T07:00:25;24.90;31.30
20610;DHT22;10463;52.378;9.688;2022-09-16T07:03:10;24.90;31.30
20610;DHT22;10463;52.378;9.688;2022-09-16T07:05:55;24.80;31.20
20610;DHT22;10463;52.378;9.688;2022-09-16T07:08:43;24.90;31.10
20610;DHT22;10463;52.378;9.688;2022-09-16T07:11:28;24.80;30.90
20610;DHT22;10463;52.378;9.688;2022-09-16T07:14:13;24.80;30.90
20610;DHT22;10463;52.378;9.688;2022-09-16T07:16:58;24.80;30.80
20610;DHT22;10463;52.378;9.688;2022-09-16T07:19:44;24.70;30.70
20610;DHT22;10463;52.378;9.688;2022-09-16T07:22:30;24.70;30.70
20610;DHT22;10463;52.378;9.688;2022-09-16T07:25:17;24.60;30.70
20610;DHT22;10463;52.378;9.688;2022-09-16T07:28:02;24.60;30.70
20610;DHT22;10463;52.378;9.688;2022-09-16T07:30:47;24.60;31.00
20610;DHT22;10463;52.378;9.688;2022-09-16T07:33:37;24.50;30.60
20610;DHT22;10463;52.378;9.688;2022-09-16T07:36:24;24.50;30.60
20610;DHT22;10463;52.378;9.688;2022-09-16T07:39:11;24.50;30.50
20610;DHT22;10463;52.378;9.688;2022-09-16T07:41:57;24.40;30.50
20610;DHT22;10463;52.378;9.688;2022-09-16T07:44:42;24.40;30.50
20610;DHT22;10463;52.378;9.688;2022-09-16T07:47:26;24.30;30.50
20610;DHT22;10463;52.378;9.688;2022-09-16T07:50:11;24.30;30.60
20610;DHT22;10463;52.378;9.688;2022-09-16T07:52:55;24.30;30.50
20610;DHT22;10463;52.378;9.688;2022-09-16T07:55:41;24.30;30.60
20610;DHT22;10463;52.378;9.688;2022-09-16T07:58:27;24.20;30.40
20610;DHT22;10463;52.378;9.688;2022-09-16T08:01:13;24.20;30.50
20610;DHT22;10463;52.378;9.688;2022-09-16T08:03:59;24.20;30.60
20610;DHT22;10463;52.378;9.688;2022-09-16T08:06:44;24.20;30.70
20610;DHT22;10463;52.378;9.688;2022-09-16T08:09:28;24.20;30.80
20610;DHT22;10463;52.378;9.688;2022-09-16T08:12:13;24.20;30.90
20610;DHT22;10463;52.378;9.688;2022-09-16T08:15:00;24.20;31.00
20610;DHT22;10463;52.378;9.688;2022-09-16T08:17:45;24.20;31.10
20610;DHT22;10463;52.378;9.688;2022-09-16T08:20:29;24.30;31.30
20610;DHT22;10463;52.378;9.688;2022-09-16T08:23:14;24.30;31.30
20610;DHT22;10463;52.378;9.688;2022-09-16T08:25:59;24.30;31.30
20610;DHT22;10463;52.378;9.688;2022-09-16T08:28:46;24.40;31.40
20610;DHT22;10463;52.378;9.688;2022-09-16T08:31:32;24.40;31.40
20610;DHT22;10463;52.378;9.688;2022-09-16T08:34:17;24.50;31.60
20610;DHT22;10463;52.378;9.688;2022-09-16T08:37:02;24.50;31.60
20610;DHT22;10463;52.378;9.688;2022-09-16T08:39:46;24.60;31.70
20610;DHT22;10463;52.378;9.688;2022-09-16T08:42:52;24.60;32.30
20610;DHT22;10463;52.378;9.688;2022-09-16T08:45:47;24.70;31.80
20610;DHT22;10463;52.378;9.688;2022-09-16T08:48:44;24.70;31.80
20610;DHT22;10463;52.378;9.688;2022-09-16T08:51:32;24.70;31.80
20610;DHT22;10463;52.378;9.688;2022-09-16T08:54:26;24.80;31.90
20610;DHT22;10463;52.378;9.688;2022-09-16T08:57:16;24.90;32.00
20610;DHT22;10463;52.378;9.688;2022-09-16T09:00:10;24.90;32.00
20610;DHT22;10463;52.378;9.688;2022-09-16T09:03:01;25.00;32.10
20610;DHT22;10463;52.378;9.688;2022-09-16T09:05:54;25.00;32.10
20610;DHT22;10463;52.378;9.688;2022-09-16T09:08:47;25.00;32.10
20610;DHT22;10463;52.378;9.688;2022-09-16T09:11:40;25.10;32.80
20610;DHT22;10463;52.378;9.688;2022-09-16T09:14:37;25.10;32.10
20610;DHT22;10463;52.378;9.688;2022-09-16T09:17:40;25.20;32.10
20610;DHT22;10463;52.378;9.688;2022-09-16T09:20:36;25.20;32.10
20610;DHT22;10463;52.378;9.688;2022-09-16T09:23:51;25.30;32.80
20610;DHT22;10463;52.378;9.688;2022-09-16T09:26:48;25.30;32.10
20610;DHT22;10463;52.378;9.688;2022-09-16T09:29:58;25.40;32.10
20610;DHT22;10463;52.378;9.688;2022-09-16T09:33:11;25.40;32.10
20610;DHT22;10463;52.378;9.688;2022-09-16T09:36:16;25.50;32.10
20610;DHT22;10463;52.378;9.688;2022-09-16T09:39:22;25.50;32.10
20610;DHT22;10463;52.378;9.688;2022-09-16T09:42:17;25.60;32.10
20610;DHT22;10463;52.378;9.688;2022-09-16T09:45:16;25.60;32.10
20610;DHT22;10463;52.378;9.688;2022-09-16T09:48:08;25.60;32.10
20610;DHT22;10463;52.378;9.688;2022-09-16T09:51:03;25.70;32.10
20610;DHT22;10463;52.378;9.688;2022-09-16T09:53:54;25.70;32.20
20610;DHT22;10463;52.378;9.688;2022-09-16T09:56:44;25.80;32.20
20610;DHT22;10463;52.378;9.688;2022-09-16T09:59:37;25.80;32.20
20610;DHT22;10463;52.378;9.688;2022-09-16T10:02:27;25.80;32.10
20610;DHT22;10463;52.378;9.688;2022-09-16T10:05:26;25.90;32.20
20610;DHT22;10463;52.378;9.688;2022-09-16T10:08:20;25.90;32.20
20610;DHT22;10463;52.378;9.688;2022-09-16T10:11:17;26.00;32.20
20610;DHT22;10463;52.378;9.688;2022-09-16T10:14:03;26.00;32.80
20610;DHT22;10463;52.378;9.688;2022-09-16T10:16:50;26.10;32.20
20610;DHT22;10463;52.378;9.688;2022-09-16T10:19:48;26.10;32.10
20610;DHT22;10463;52.378;9.688;2022-09-16T10:22:34;26.10;32.10
20610;DHT22;10463;52.378;9.688;2022-09-16T10:25:23;26.20;32.00
20610;DHT22;10463;52.378;9.688;2022-09-16T10:28:23;26.20;31.90
20610;DHT22;10463;52.378;9.688;2022-09-16T10:31:10;26.20;31.90
20610;DHT22;10463;52.378;9.688;2022-09-16T10:33:55;26.30;31.90
20610;DHT22;10463;52.378;9.688;2022-09-16T10:36:40;26.30;31.80
20610;DHT22;10463;52.378;9.688;2022-09-16T10:39:26;26.30;31.70
20610;DHT22;10463;52.378;9.688;2022-09-16T10:42:18;26.30;31.70
20610;DHT22;10463;52.378;9.688;2022-09-16T10:45:14;26.40;32.30
20610;DHT22;10463;52.378;9.688;2022-09-16T10:48:06;26.40;31.60
20610;DHT22;10463;52.378;9.688;2022-09-16T10:50:56;26.40;31.70
20610;DHT22;10463;52.378;9.688;2022-09-16T10:53:49;26.50;31.70
20610;DHT22;10463;52.378;9.688;2022-09-16T10:56:49;26.50;31.70
20610;DHT22;10463;52.378;9.688;2022-09-16T10:59:33;26.50;31.70
20610;DHT22;10463;52.378;9.688;2022-09-16T11:02:31;26.60;31.80
20610;DHT22;10463;52.378;9.688;2022-09-16T11:05:29;26.60;31.80
20610;DHT22;10463;52.378;9.688;2022-09-16T11:08:25;26.60;31.60
20610;DHT22;10463;52.378;9.688;2022-09-16T11:11:18;26.70;31.60
20610;DHT22;10463;52.378;9.688;2022-09-16T11:14:15;26.70;31.60
20610;DHT22;10463;52.378;9.688;2022-09-16T11:17:21;26.70;31.60
20610;DHT22;10463;52.378;9.688;2022-09-16T11:20:43;26.80;31.70
20610;DHT22;10463;52.378;9.688;2022-09-16T11:23:50;26.80;31.70
20610;DHT22;10463;52.378;9.688;2022-09-16T11:26:47;26.80;31.70
20610;DHT22;10463;52.378;9.688;2022-09-16T11:29:56;26.90;31.80
20610;DHT22;10463;52.378;9.688;2022-09-16T11:33:11;26.90;31.80
20610;DHT22;10463;52.378;9.688;2022-09-16T11:36:14;27.00;31.90
20610;DHT22;10463;52.378;9.688;2022-09-16T11:39:18;27.00;31.80
20610;DHT22;10463;52.378;9.688;2022-09-16T11:42:14;27.00;31.90
20610;DHT22;10463;52.378;9.688;2022-09-16T11:45:16;27.10;31.80
20610;DHT22;10463;52.378;9.688;2022-09-16T11:51:37;27.20;31.50
20610;DHT22;10463;52.378;9.688;2022-09-16T11:54:44;27.20;31.50
20610;DHT22;10463;52.378;9.688;2022-09-16T11:57:34;27.20;31.50
20610;DHT22;10463;52.378;9.688;2022-09-16T12:00:19;27.20;31.50
20610;DHT22;10463;52.378;9.688;2022-09-16T12:03:09;27.30;31.60
20610;DHT22;10463;52.378;9.688;2022-09-16T12:06:02;27.30;31.60
20610;DHT22;10463;52.378;9.688;2022-09-16T12:08:55;27.30;31.50
20610;DHT22;10463;52.378;9.688;2022-09-16T12:11:45;27.30;31.60
20610;DHT22;10463;52.378;9.688;2022-09-16T12:14:37;27.40;31.70
20610;DHT22;10463;52.378;9.688;2022-09-16T12:17:27;27.40;31.70
20610;DHT22;10463;52.378;9.688;2022-09-16T12:20:16;27.40;32.30
20610;DHT22;10463;52.378;9.688;2022-09-16T12:23:08;27.40;31.70
20610;DHT22;10463;52.378;9.688;2022-09-16T12:26:04;27.50;31.70
20610;DHT22;10463;52.378;9.688;2022-09-16T12:28:58;27.50;31.70
20610;DHT22;10463;52.378;9.688;2022-09-16T12:31:49;27.50;32.30
20610;DHT22;10463;52.378;9.688;2022-09-16T12:34:40;27.60;31.60
20610;DHT22;10463;52.378;9.688;2022-09-16T12:37:35;27.60;31.50
20610;DHT22;10463;52.378;9.688;2022-09-16T12:40:24;27.60;31.30
20610;DHT22;10463;52.378;9.688;2022-09-16T12:43:37;27.70;31.30
20610;DHT22;10463;52.378;9.688;2022-09-16T12:47:04;27.70;31.50
20610;DHT22;10463;52.378;9.688;2022-09-16T12:50:16;27.70;31.10
20610;DHT22;10463;52.378;9.688;2022-09-16T12:56:55;27.80;31.00
20610;DHT22;10463;52.378;9.688;2022-09-16T13:00:10;27.80;30.90
20610;DHT22;10463;52.378;9.688;2022-09-16T13:02:59;27.80;30.80
20610;DHT22;10463;52.378;9.688;2022-09-16T13:05:50;27.80;30.80
20610;DHT22;10463;52.378;9.688;2022-09-16T13:08:36;27.80;30.80
20610;DHT22;10463;52.378;9.688;2022-09-16T13:11:24;27.80;30.70
20610;DHT22;10463;52.378;9.688;2022-09-16T13:14:20;27.80;30.80
20610;DHT22;10463;52.378;9.688;2022-09-16T13:17:10;27.80;30.70
20610;DHT22;10463;52.378;9.688;2022-09-16T13:20:02;27.80;30.60
20610;DHT22;10463;52.378;9.688;2022-09-16T13:23:01;27.80;30.60
20610;DHT22;10463;52.378;9.688;2022-09-16T13:25:54;27.80;30.60
20610;DHT22;10463;52.378;9.688;2022-09-16T13:28:42;27.80;30.70
20610;DHT22;10463;52.378;9.688;2022-09-16T13:31:29;27.80;30.80
20610;DHT22;10463;52.378;9.688;2022-09-16T13:34:17;27.80;30.80
20610;DHT22;10463;52.378;9.688;2022-09-16T13:37:14;27.90;30.80
20610;DHT22;10463;52.378;9.688;2022-09-16T13:40:15;27.90;30.80
20610;DHT22;10463;52.378;9.688;2022-09-16T13:43:12;28.00;30.70
20610;DHT22;10463;52.378;9.688;2022-09-16T13:46:08;28.00;30.50
20610;DHT22;10463;52.378;9.688;2022-09-16T13:48:58;28.00;30.40
20610;DHT22;10463;52.378;9.688;2022-09-16T13:51:55;28.10;30.40
20610;DHT22;10463;52.378;9.688;2022-09-16T13:54:42;28.10;30.40
20610;DHT22;10463;52.378;9.688;2022-09-16T13:57:57;28.10;30.20
20610;DHT22;10463;52.378;9.688;2022-09-16T14:00:53;28.10;30.20
20610;DHT22;10463;52.378;9.688;2022-09-16T14:03:52;28.10;30.20
20610;DHT22;10463;52.378;9.688;2022-09-16T14:06:59;28.10;30.20
20610;DHT22;10463;52.378;9.688;2022-09-16T14:09:58;28.10;30.30
20610;DHT22;10463;52.378;9.688;2022-09-16T14:12:58;28.20;30.50
20610;DHT22;10463;52.378;9.688;2022-09-16T14:15:48;28.20;30.60
20610;DHT22;10463;52.378;9.688;2022-09-16T14:18:34;28.20;30.70
20610;DHT22;10463;52.378;9.688;2022-09-16T14:21:22;28.20;30.70
20610;DHT22;10463;52.378;9.688;2022-09-16T14:24:16;28.30;30.70
20610;DHT22;10463;52.378;9.688;2022-09-16T14:27:02;28.30;30.80
20610;DHT22;10463;52.378;9.688;2022-09-16T14:29:56;28.30;30.70
20610;DHT22;10463;52.378;9.688;2022-09-16T14:32:41;28.40;30.60
20610;DHT22;10463;52.378;9.688;2022-09-16T14:35:26;28.40;30.50
20610;DHT22;10463;52.378;9.688;2022-09-16T14:38:14;28.40;30.40
20610;DHT22;10463;52.378;9.688;2022-09-16T14:41:05;28.50;30.40
20610;DHT22;10463;52.378;9.688;2022-09-16T14:43:51;28.50;30.40
20610;DHT22;10463;52.378;9.688;2022-09-16T14:46:44;28.50;30.20
20610;DHT22;10463;52.378;9.688;2022-09-16T14:49:29;28.50;30.10
20610;DHT22;10463;52.378;9.688;2022-09-16T14:52:19;28.50;30.00
20610;DHT22;10463;52.378;9.688;2022-09-16T14:55:12;28.50;30.00
20610;DHT22;10463;52.378;9.688;2022-09-16T14:58:00;28.60;30.00
20610;DHT22;10463;52.378;9.688;2022-09-16T15:00:50;28.60;30.00
20610;DHT22;10463;52.378;9.688;2022-09-16T15:03:42;28.60;29.90
20610;DHT22;10463;52.378;9.688;2022-09-16T15:06:32;28.60;29.80
20610;DHT22;10463;52.378;9.688;2022-09-16T15:09:25;28.60;29.80
20610;DHT22;10463;52.378;9.688;2022-09-16T15:12:25;28.60;29.70
20610;DHT22;10463;52.378;9.688;2022-09-16T15:15:20;28.70;29.70
20610;DHT22;10463;52.378;9.688;2022-09-16T15:18:10;28.70;29.70
20610;DHT22;10463;52.378;9.688;2022-09-16T15:21:06;28.70;29.70
20610;DHT22;10463;52.378;9.688;2022-09-16T15:23:54;28.80;29.70
20610;DHT22;10463;52.378;9.688;2022-09-16T15:26:41;28.80;30.00
20610;DHT22;10463;52.378;9.688;2022-09-16T15:29:30;28.80;29.40
20610;DHT22;10463;52.378;9.688;2022-09-16T15:32:19;28.90;29.40
20610;DHT22;10463;52.378;9.688;2022-09-16T15:35:17;28.90;29.30
20610;DHT22;10463;52.378;9.688;2022-09-16T15:38:10;29.00;29.20
20610;DHT22;10463;52.378;9.688;2022-09-16T15:41:03;29.00;29.10
20610;DHT22;10463;52.378;9.688;2022-09-16T15:43:49;29.00;29.10
20610;DHT22;10463;52.378;9.688;2022-09-16T15:46:34;29.00;29.00
20610;DHT22;10463;52.378;9.688;2022-09-16T15:49:20;29.00;29.00
20610;DHT22;10463;52.378;9.688;2022-09-16T15:52:10;29.00;29.10
20610;DHT22;10463;52.378;9.688;2022-09-16T15:54:59;29.00;29.10
20610;DHT22;10463;52.378;9.688;2022-09-16T15:57:45;29.00;29.00
20610;DHT22;10463;52.378;9.688;2022-09-16T16:00:58;29.00;29.00
20610;DHT22;10463;52.378;9.688;2022-09-16T16:03:55;28.90;29.00
20610;DHT22;10463;52.378;9.688;2022-09-16T16:06:51;29.00;29.10
20610;DHT22;10463;52.378;9.688;2022-09-16T16:09:40;28.90;29.00
20610;DHT22;10463;52.378;9.688;2022-09-16T16:12:25;29.00;29.10
20610;DHT22;10463;52.378;9.688;2022-09-16T16:15:10;28.90;29.00
20610;DHT22;10463;52.378;9.688;2022-09-16T16:17:59;28.90;29.10
20610;DHT22;10463;52.378;9.688;2022-09-16T16:20:45;28.90;29.10
20610;DHT22;10463;52.378;9.688;2022-09-16T16:23:31;28.90;29.10
20610;DHT22;10463;52.378;9.688;2022-09-16T16:26:15;28.90;29.10
20610;DHT22;10463;52.378;9.688;2022-09-16T16:29:00;28.90;29.10
20610;DHT22;10463;52.378;9.688;2022-09-16T16:32:05;28.90;29.10
20610;DHT22;10463;52.378;9.688;2022-09-16T16:34:50;28.90;29.20
20610;DHT22;10463;52.378;9.688;2022-09-16T16:37:35;28.90;29.20
20610;DHT22;10463;52.378;9.688;2022-09-16T16:40:21;28.80;29.10
20610;DHT22;10463;52.378;9.688;2022-09-16T16:43:07;28.80;29.10
20610;DHT22;10463;52.378;9.688;2022-09-16T16:45:53;28.80;29.10
20610;DHT22;10463;52.378;9.688;2022-09-16T16:48:38;28.80;29.10
20610;DHT22;10463;52.378;9.688;2022-09-16T16:51:23;28.80;29.10
20610;DHT22;10463;52.378;9.688;2022-09-16T16:54:10;28.80;29.10
20610;DHT22;10463;52.378;9.688;2022-09-16T16:56:56;28.70;29.00
20610;DHT22;10463;52.378;9.688;2022-09-16T16:59:42;28.70;29.00
20610;DHT22;10463;52.378;9.688;2022-09-16T17:02:26;28.70;29.00
20610;DHT22;10463;52.378;9.688;2022-09-16T17:05:11;28.70;29.10
20610;DHT22;10463;52.378;9.688;2022-09-16T17:07:55;28.70;29.10
20610;DHT22;10463;52.378;9.688;2022-09-16T17:10:40;28.70;29.60
20610;DHT22;10463;52.378;9.688;2022-09-16T17:13:29;28.70;29.00
20610;DHT22;10463;52.378;9.688;2022-09-16T17:16:17;28.60;29.00
20610;DHT22;10463;52.378;9.688;2022-09-16T17:19:02;28.60;29.00
20610;DHT22;10463;52.378;9.688;2022-09-16T17:21:47;28.60;29.00
20610;DHT22;10463;52.378;9.688;2022-09-16T17:24:33;28.60;29.00
20610;DHT22;10463;52.378;9.688;2022-09-16T17:27:18;28.60;29.00
20610;DHT22;10463;52.378;9.688;2022-09-16T17:30:07;28.60;29.50
20610;DHT22;10463;52.378;9.688;2022-09-16T17:32:52;28.50;29.00
20610;DHT22;10463;52.378;9.688;2022-09-16T17:35:36;28.50;29.50
20610;DHT22;10463;52.378;9.688;2022-09-16T17:38:21;28.50;29.50
20610;DHT22;10463;52.378;9.688;2022-09-16T17:41:09;28.50;28.90
20610;DHT22;10463;52.378;9.688;2022-09-16T17:43:55;28.50;28.90
20610;DHT22;10463;52.378;9.688;2022-09-16T17:46:42;28.50;28.90
20610;DHT22;10463;52.378;9.688;2022-09-16T17:49:28;28.50;28.90
20610;DHT22;10463;52.378;9.688;2022-09-16T17:52:13;28.50;28.90
20610;DHT22;10463;52.378;9.688;2022-09-16T17:54:59;28.40;28.90
20610;DHT22;10463;52.378;9.688;2022-09-16T17:57:44;28.40;28.90
20610;DHT22;10463;52.378;9.688;2022-09-16T18:00:28;28.40;28.90
20610;DHT22;10463;52.378;9.688;2022-09-16T18:03:14;28.40;28.90
20610;DHT22;10463;52.378;9.688;2022-09-16T18:06:05;28.40;28.90